sensor_id;sensor_type;location;lat;lon;timestamp;pressure;altitude;pressure_sealevel;temperature;humidity
69593;BME280;56796;50.122;14.468;2024-03-17T00:15:09;985.7;;;4.98;81.84
69593;BME280;56796;50.122;14.468;2024-03-17T00:34:36;985.77;;;4.73;82.79
69593;BME280;56796;50.122;14.468;2024-03-17T00:53:59;985.77;;;4.6;83.26
69593;BME280;56796;50.122;14.468;2024-03-17T01:13:28;985.76;;;4.34;83.31
69593;BME280;56796;50.122;14.468;2024-03-17T01:32:52;985.76;;;4.25;83.18
69593;BME280;56796;50.122;14.468;2024-03-17T01:52:17;985.59;;;4.03;83.15
69593;BME280;56796;50.122;14.468;2024-03-17T02:11:46;985.63;;;3.96;82.65
69593;BME280;56796;50.122;14.468;2024-03-17T02:31:10;985.71;;;4.06;81.63
69593;BME280;56796;50.122;14.468;2024-03-17T02:50:36;985.71;;;3.93;81.92
69593;BME280;56796;50.122;14.468;2024-03-17T03:10:05;985.65;;;3.84;82.15
69593;BME280;56796;50.122;14.468;2024-03-17T03:29:29;985.69;;;3.82;82.42
69593;BME280;56796;50.122;14.468;2024-03-17T03:48:55;985.59;;;3.61;82.77
69593;BME280;56796;50.122;14.468;2024-03-17T04:08:21;985.59;;;3.46;83.25
69593;BME280;56796;50.122;14.468;2024-03-17T04:27:47;985.69;;;3.26;83.66
69593;BME280;56796;50.122;14.468;2024-03-17T04:47:13;985.78;;;3.08;84.26
69593;BME280;56796;50.122;14.468;2024-03-17T05:06:38;985.83;;;3.01;84.68
69593;BME280;56796;50.122;14.468;2024-03-17T05:26:06;985.97;;;2.96;85.17
69593;BME280;56796;50.122;14.468;2024-03-17T05:45:35;986.09;;;3.76;84.35
69593;BME280;56796;50.122;14.468;2024-03-17T06:04:58;986.3;;;4.86;81.76
69593;BME280;56796;50.122;14.468;2024-03-17T06:24:32;986.35;;;6.13;78.03
69593;BME280;56796;50.122;14.468;2024-03-17T06:44:05;986.4;;;7.53;73.11
69593;BME280;56796;50.122;14.468;2024-03-17T07:03:34;986.65;;;8.5;68.22
69593;BME280;56796;50.122;14.468;2024-03-17T07:23:05;986.73;;;9.89;65.2
69593;BME280;56796;50.122;14.468;2024-03-17T07:42:37;986.75;;;10.6;61.51
69593;BME280;56796;50.122;14.468;2024-03-17T08:02:11;986.69;;;11.96;58.48
69593;BME280;56796;50.122;14.468;2024-03-17T08:21:43;986.62;;;12.98;55.93
69593;BME280;56796;50.122;14.468;2024-03-17T08:41:10;986.58;;;12.52;55.71
69593;BME280;56796;50.122;14.468;2024-03-17T09:00:34;986.47;;;10.54;60.31
69593;BME280;56796;50.122;14.468;2024-03-17T09:19:56;986.28;;;10.8;59.78
69593;BME280;56796;50.122;14.468;2024-03-17T09:39:23;986.23;;;9.84;58.03
69593;BME280;56796;50.122;14.468;2024-03-17T09:58:50;985.93;;;12.44;54.47
69593;BME280;56796;50.122;14.468;2024-03-17T10:37:38;985.98;;;10.84;55.67
69593;BME280;56796;50.122;14.468;2024-03-17T10:57:07;985.98;;;10.1;57.2
69593;BME280;56796;50.122;14.468;2024-03-17T11:16:36;985.8;;;13.62;51.31
69593;BME280;56796;50.122;14.468;2024-03-17T11:55:48;985.36;;;13.96;44.96
69593;BME280;56796;50.122;14.468;2024-03-17T12:34:33;985.01;;;15.14;45
69593;BME280;56796;50.122;14.468;2024-03-17T13:13:28;984.62;;;15.41;41.48
69593;BME280;56796;50.122;14.468;2024-03-17T13:32:57;984.39;;;16.37;39.23
69593;BME280;56796;50.122;14.468;2024-03-17T13:52:25;984.3;;;15.33;40.29
69593;BME280;56796;50.122;14.468;2024-03-17T14:11:49;984.1;;;14.88;40.3
69593;BME280;56796;50.122;14.468;2024-03-17T14:31:13;984.03;;;14.78;41.35
69593;BME280;56796;50.122;14.468;2024-03-17T14:50:36;983.9;;;14.75;41.51
69593;BME280;56796;50.122;14.468;2024-03-17T15:10:05;983.84;;;14.51;41.29
69593;BME280;56796;50.122;14.468;2024-03-17T15:29:26;983.73;;;13.51;42.48
69593;BME280;56796;50.122;14.468;2024-03-17T15:48:46;983.77;;;12.51;43.89
69593;BME280;56796;50.122;14.468;2024-03-17T16:08:10;983.68;;;11.56;46.5
69593;BME280;56796;50.122;14.468;2024-03-17T16:27:30;983.74;;;10.5;48.43
69593;BME280;56796;50.122;14.468;2024-03-17T17:06:16;983.76;;;9.41;52.73
69593;BME280;56796;50.122;14.468;2024-03-17T17:25:40;983.8;;;8.77;54.8
69593;BME280;56796;50.122;14.468;2024-03-17T17:45:06;983.77;;;8.39;56.28
69593;BME280;56796;50.122;14.468;2024-03-17T18:04:31;983.83;;;8.35;56.58
69593;BME280;56796;50.122;14.468;2024-03-17T18:23:57;983.78;;;7.77;60.06
69593;BME280;56796;50.122;14.468;2024-03-17T18:43:22;983.94;;;7.3;62.83
69593;BME280;56796;50.122;14.468;2024-03-17T19:02:47;984.03;;;7.01;64.09
69593;BME280;56796;50.122;14.468;2024-03-17T19:22:12;983.99;;;6.8;64.36
69593;BME280;56796;50.122;14.468;2024-03-17T19:41:38;983.9;;;6.54;65.05
69593;BME280;56796;50.122;14.468;2024-03-17T20:01:07;983.97;;;6.43;65.52
69593;BME280;56796;50.122;14.468;2024-03-17T20:20:29;983.86;;;6.13;66.34
69593;BME280;56796;50.122;14.468;2024-03-17T20:39:55;983.94;;;6.01;66.52
69593;BME280;56796;50.122;14.468;2024-03-17T20:59:20;983.92;;;5.74;66.95
69593;BME280;56796;50.122;14.468;2024-03-17T21:18:47;983.94;;;5.67;67.47
69593;BME280;56796;50.122;14.468;2024-03-17T21:38:18;983.75;;;5.66;67.33
69593;BME280;56796;50.122;14.468;2024-03-17T21:57:34;983.63;;;5.52;68.17
69593;BME280;56796;50.122;14.468;2024-03-17T22:17:01;983.56;;;5.15;68.77
69593;BME280;56796;50.122;14.468;2024-03-17T22:36:26;983.54;;;4.98;70.19
69593;BME280;56796;50.122;14.468;2024-03-17T22:55:53;983.45;;;4.69;71.44
69593;BME280;56796;50.122;14.468;2024-03-17T23:15:18;983.4;;;4.33;72.18
69593;BME280;56796;50.122;14.468;2024-03-17T23:34:43;983.39;;;4.39;72.07
69593;BME280;56796;50.122;14.468;2024-03-17T23:54:10;983.39;;;4.29;72.27
